sensor_id;sensor_type;location;lat;lon;timestamp;temperature;humidity
17954;DHT22;9102;53.548;9.926;2023-02-22T00:00:22;8.60;99.90
17954;DHT22;9102;53.548;9.926;2023-02-22T00:02:55;8.60;99.90
17954;DHT22;9102;53.548;9.926;2023-02-22T00:05:25;8.60;99.90
17954;DHT22;9102;53.548;9.926;2023-02-22T00:07:53;8.60;99.90
17954;DHT22;9102;53.548;9.926;2023-02-22T00:10:23;8.50;99.90
17954;DHT22;9102;53.548;9.926;2023-02-22T00:12:51;8.60;99.90
17954;DHT22;9102;53.548;9.926;2023-02-22T00:18:40;8.60;99.90
17954;DHT22;9102;53.548;9.926;2023-02-22T00:21:07;8.60;99.90
17954;DHT22;9102;53.548;9.926;2023-02-22T00:23:35;8.50;99.90
17954;DHT22;9102;53.548;9.926;2023-02-22T00:26:05;8.50;99.90
17954;DHT22;9102;53.548;9.926;2023-02-22T00:28:34;8.40;99.90
17954;DHT22;9102;53.548;9.926;2023-02-22T00:31:01;8.40;99.90
17954;DHT22;9102;53.548;9.926;2023-02-22T00:33:30;8.30;99.90
17954;DHT22;9102;53.548;9.926;2023-02-22T00:35:57;8.50;99.90
17954;DHT22;9102;53.548;9.926;2023-02-22T00:38:24;8.40;99.90
17954;DHT22;9102;53.548;9.926;2023-02-22T00:40:51;8.40;99.90
17954;DHT22;9102;53.548;9.926;2023-02-22T00:43:19;8.40;99.90
17954;DHT22;9102;53.548;9.926;2023-02-22T00:45:45;8.40;99.90
17954;DHT22;9102;53.548;9.926;2023-02-22T00:48:14;8.40;99.90
17954;DHT22;9102;53.548;9.926;2023-02-22T00:50:40;8.40;99.90
17954;DHT22;9102;53.548;9.926;2023-02-22T00:53:07;8.40;99.90
17954;DHT22;9102;53.548;9.926;2023-02-22T00:55:36;8.40;99.90
17954;DHT22;9102;53.548;9.926;2023-02-22T00:58:04;8.40;99.90
17954;DHT22;9102;53.548;9.926;2023-02-22T01:00:33;8.40;99.90
17954;DHT22;9102;53.548;9.926;2023-02-22T01:03:01;8.40;99.90
17954;DHT22;9102;53.548;9.926;2023-02-22T01:05:29;8.40;99.90
17954;DHT22;9102;53.548;9.926;2023-02-22T01:07:57;8.30;99.90
17954;DHT22;9102;53.548;9.926;2023-02-22T01:10:26;8.30;99.90
17954;DHT22;9102;53.548;9.926;2023-02-22T01:12:54;8.30;99.90
17954;DHT22;9102;53.548;9.926;2023-02-22T01:15:23;8.10;99.90
17954;DHT22;9102;53.548;9.926;2023-02-22T01:17:53;8.20;99.90
17954;DHT22;9102;53.548;9.926;2023-02-22T01:20:21;8.20;99.90
17954;DHT22;9102;53.548;9.926;2023-02-22T01:22:49;8.20;99.90
17954;DHT22;9102;53.548;9.926;2023-02-22T01:25:18;8.20;99.90
17954;DHT22;9102;53.548;9.926;2023-02-22T01:27:45;8.20;99.90
17954;DHT22;9102;53.548;9.926;2023-02-22T01:30:13;8.20;99.90
17954;DHT22;9102;53.548;9.926;2023-02-22T01:32:41;8.20;99.90
17954;DHT22;9102;53.548;9.926;2023-02-22T01:35:12;8.20;99.90
17954;DHT22;9102;53.548;9.926;2023-02-22T01:37:40;8.20;99.90
17954;DHT22;9102;53.548;9.926;2023-02-22T01:40:10;8.20;99.90
17954;DHT22;9102;53.548;9.926;2023-02-22T01:42:41;8.20;99.90
17954;DHT22;9102;53.548;9.926;2023-02-22T01:45:43;8.20;99.90
17954;DHT22;9102;53.548;9.926;2023-02-22T01:48:13;8.20;99.90
17954;DHT22;9102;53.548;9.926;2023-02-22T01:50:45;8.10;99.90
17954;DHT22;9102;53.548;9.926;2023-02-22T01:53:15;8.20;99.90
17954;DHT22;9102;53.548;9.926;2023-02-22T01:55:43;8.10;99.90
17954;DHT22;9102;53.548;9.926;2023-02-22T02:01:34;8.20;99.90
17954;DHT22;9102;53.548;9.926;2023-02-22T02:04:04;8.20;99.90
17954;DHT22;9102;53.548;9.926;2023-02-22T02:06:33;8.20;99.90
17954;DHT22;9102;53.548;9.926;2023-02-22T02:09:04;8.10;99.90
17954;DHT22;9102;53.548;9.926;2023-02-22T02:11:35;8.20;99.90
17954;DHT22;9102;53.548;9.926;2023-02-22T02:14:06;8.10;99.90
17954;DHT22;9102;53.548;9.926;2023-02-22T02:16:37;8.10;99.90
17954;DHT22;9102;53.548;9.926;2023-02-22T02:19:10;8.00;99.90
17954;DHT22;9102;53.548;9.926;2023-02-22T02:22:03;8.00;99.90
17954;DHT22;9102;53.548;9.926;2023-02-22T02:28:15;8.00;99.90
17954;DHT22;9102;53.548;9.926;2023-02-22T02:30:55;8.00;99.90
17954;DHT22;9102;53.548;9.926;2023-02-22T02:33:31;7.90;99.90
17954;DHT22;9102;53.548;9.926;2023-02-22T02:36:03;8.00;99.90
17954;DHT22;9102;53.548;9.926;2023-02-22T02:38:37;8.00;99.90
17954;DHT22;9102;53.548;9.926;2023-02-22T02:41:09;8.00;99.90
17954;DHT22;9102;53.548;9.926;2023-02-22T02:43:43;8.00;99.90
17954;DHT22;9102;53.548;9.926;2023-02-22T02:46:15;8.00;99.90
17954;DHT22;9102;53.548;9.926;2023-02-22T02:48:50;8.10;99.90
17954;DHT22;9102;53.548;9.926;2023-02-22T02:51:20;8.10;99.90
17954;DHT22;9102;53.548;9.926;2023-02-22T02:53:49;8.10;99.90
17954;DHT22;9102;53.548;9.926;2023-02-22T02:56:17;8.10;99.90
17954;DHT22;9102;53.548;9.926;2023-02-22T02:58:45;8.10;99.90
17954;DHT22;9102;53.548;9.926;2023-02-22T03:01:19;8.10;99.90
17954;DHT22;9102;53.548;9.926;2023-02-22T03:04:04;8.10;99.90
17954;DHT22;9102;53.548;9.926;2023-02-22T03:09:44;8.00;99.90
17954;DHT22;9102;53.548;9.926;2023-02-22T03:12:21;8.10;99.90
17954;DHT22;9102;53.548;9.926;2023-02-22T03:14:59;8.00;99.90
17954;DHT22;9102;53.548;9.926;2023-02-22T03:17:38;8.00;99.90
17954;DHT22;9102;53.548;9.926;2023-02-22T03:20:13;8.10;99.90
17954;DHT22;9102;53.548;9.926;2023-02-22T03:22:44;8.00;99.90
17954;DHT22;9102;53.548;9.926;2023-02-22T03:25:19;8.00;99.90
17954;DHT22;9102;53.548;9.926;2023-02-22T03:27:50;8.00;99.90
17954;DHT22;9102;53.548;9.926;2023-02-22T03:30:21;8.00;99.90
17954;DHT22;9102;53.548;9.926;2023-02-22T03:32:53;8.00;99.90
17954;DHT22;9102;53.548;9.926;2023-02-22T03:35:25;8.00;99.90
17954;DHT22;9102;53.548;9.926;2023-02-22T03:37:58;8.10;99.90
17954;DHT22;9102;53.548;9.926;2023-02-22T03:40:31;8.00;99.90
17954;DHT22;9102;53.548;9.926;2023-02-22T03:43:02;8.00;99.90
17954;DHT22;9102;53.548;9.926;2023-02-22T03:45:31;8.00;99.90
17954;DHT22;9102;53.548;9.926;2023-02-22T03:48:03;8.00;99.90
17954;DHT22;9102;53.548;9.926;2023-02-22T03:50:35;8.00;99.90
17954;DHT22;9102;53.548;9.926;2023-02-22T03:53:03;8.00;99.90
17954;DHT22;9102;53.548;9.926;2023-02-22T03:55:32;8.00;99.90
17954;DHT22;9102;53.548;9.926;2023-02-22T03:58:01;8.00;99.90
17954;DHT22;9102;53.548;9.926;2023-02-22T04:00:32;7.90;99.90
17954;DHT22;9102;53.548;9.926;2023-02-22T04:03:02;8.00;99.90
17954;DHT22;9102;53.548;9.926;2023-02-22T04:05:29;8.00;99.90
17954;DHT22;9102;53.548;9.926;2023-02-22T04:07:57;8.00;99.90
17954;DHT22;9102;53.548;9.926;2023-02-22T04:10:24;7.90;99.90
17954;DHT22;9102;53.548;9.926;2023-02-22T04:12:51;7.90;99.90
17954;DHT22;9102;53.548;9.926;2023-02-22T04:15:22;8.00;99.90
17954;DHT22;9102;53.548;9.926;2023-02-22T04:17:49;8.00;99.90
17954;DHT22;9102;53.548;9.926;2023-02-22T04:20:17;7.90;99.90
17954;DHT22;9102;53.548;9.926;2023-02-22T04:22:44;8.00;99.90
17954;DHT22;9102;53.548;9.926;2023-02-22T04:25:13;7.90;99.90
17954;DHT22;9102;53.548;9.926;2023-02-22T04:27:40;8.00;99.90
17954;DHT22;9102;53.548;9.926;2023-02-22T04:30:08;7.90;99.90
17954;DHT22;9102;53.548;9.926;2023-02-22T04:32:35;7.90;99.90
17954;DHT22;9102;53.548;9.926;2023-02-22T04:35:02;7.90;99.90
17954;DHT22;9102;53.548;9.926;2023-02-22T04:37:29;7.90;99.90
17954;DHT22;9102;53.548;9.926;2023-02-22T04:39:59;7.90;99.90
17954;DHT22;9102;53.548;9.926;2023-02-22T04:42:27;7.90;99.90
17954;DHT22;9102;53.548;9.926;2023-02-22T04:44:54;7.90;99.90
17954;DHT22;9102;53.548;9.926;2023-02-22T04:47:20;8.00;99.90
17954;DHT22;9102;53.548;9.926;2023-02-22T04:49:47;8.00;99.90
17954;DHT22;9102;53.548;9.926;2023-02-22T04:52:14;7.90;99.90
17954;DHT22;9102;53.548;9.926;2023-02-22T04:54:41;7.90;99.90
17954;DHT22;9102;53.548;9.926;2023-02-22T04:57:08;7.90;99.90
17954;DHT22;9102;53.548;9.926;2023-02-22T04:59:36;7.90;99.90
17954;DHT22;9102;53.548;9.926;2023-02-22T05:02:03;7.90;99.90
17954;DHT22;9102;53.548;9.926;2023-02-22T05:04:29;7.90;99.90
17954;DHT22;9102;53.548;9.926;2023-02-22T05:06:56;8.00;99.90
17954;DHT22;9102;53.548;9.926;2023-02-22T05:09:23;8.00;99.90
17954;DHT22;9102;53.548;9.926;2023-02-22T05:11:50;7.90;99.90
17954;DHT22;9102;53.548;9.926;2023-02-22T05:14:16;8.00;99.90
17954;DHT22;9102;53.548;9.926;2023-02-22T05:16:46;7.90;99.90
17954;DHT22;9102;53.548;9.926;2023-02-22T05:19:13;8.00;99.90
17954;DHT22;9102;53.548;9.926;2023-02-22T05:21:40;8.00;99.90
17954;DHT22;9102;53.548;9.926;2023-02-22T05:24:07;7.90;99.90
17954;DHT22;9102;53.548;9.926;2023-02-22T05:26:33;7.90;99.90
17954;DHT22;9102;53.548;9.926;2023-02-22T05:29:00;8.00;99.90
17954;DHT22;9102;53.548;9.926;2023-02-22T05:31:27;8.00;99.90
17954;DHT22;9102;53.548;9.926;2023-02-22T05:33:55;8.00;99.90
17954;DHT22;9102;53.548;9.926;2023-02-22T05:36:22;8.00;99.90
17954;DHT22;9102;53.548;9.926;2023-02-22T05:38:49;8.00;99.90
17954;DHT22;9102;53.548;9.926;2023-02-22T05:41:16;8.10;99.90
17954;DHT22;9102;53.548;9.926;2023-02-22T05:43:43;8.10;99.90
17954;DHT22;9102;53.548;9.926;2023-02-22T05:46:10;8.10;99.90
17954;DHT22;9102;53.548;9.926;2023-02-22T05:48:36;8.10;99.90
17954;DHT22;9102;53.548;9.926;2023-02-22T05:51:05;8.10;99.90
17954;DHT22;9102;53.548;9.926;2023-02-22T05:53:34;8.10;99.90
17954;DHT22;9102;53.548;9.926;2023-02-22T05:56:00;8.10;99.90
17954;DHT22;9102;53.548;9.926;2023-02-22T05:58:27;8.10;99.90
17954;DHT22;9102;53.548;9.926;2023-02-22T06:00:54;8.10;99.90
17954;DHT22;9102;53.548;9.926;2023-02-22T06:03:21;8.20;99.90
17954;DHT22;9102;53.548;9.926;2023-02-22T06:05:48;8.10;99.90
17954;DHT22;9102;53.548;9.926;2023-02-22T06:08:16;8.20;99.90
17954;DHT22;9102;53.548;9.926;2023-02-22T06:10:43;8.30;99.90
17954;DHT22;9102;53.548;9.926;2023-02-22T06:13:10;8.20;99.90
17954;DHT22;9102;53.548;9.926;2023-02-22T06:15:37;8.20;99.90
17954;DHT22;9102;53.548;9.926;2023-02-22T06:18:03;8.20;99.90
17954;DHT22;9102;53.548;9.926;2023-02-22T06:20:30;8.20;99.90
17954;DHT22;9102;53.548;9.926;2023-02-22T06:22:59;8.20;99.90
17954;DHT22;9102;53.548;9.926;2023-02-22T06:25:28;8.30;99.90
17954;DHT22;9102;53.548;9.926;2023-02-22T06:27:56;8.30;99.90
17954;DHT22;9102;53.548;9.926;2023-02-22T06:30:25;8.30;99.90
17954;DHT22;9102;53.548;9.926;2023-02-22T06:32:52;8.30;99.90
17954;DHT22;9102;53.548;9.926;2023-02-22T06:38:41;8.30;99.90
17954;DHT22;9102;53.548;9.926;2023-02-22T06:41:09;8.30;99.90
17954;DHT22;9102;53.548;9.926;2023-02-22T06:43:36;8.20;99.90
17954;DHT22;9102;53.548;9.926;2023-02-22T06:46:03;8.30;99.90
17954;DHT22;9102;53.548;9.926;2023-02-22T06:48:29;8.30;99.90
17954;DHT22;9102;53.548;9.926;2023-02-22T06:50:56;8.30;99.90
17954;DHT22;9102;53.548;9.926;2023-02-22T06:53:23;8.30;99.90
17954;DHT22;9102;53.548;9.926;2023-02-22T06:55:52;8.30;99.90
17954;DHT22;9102;53.548;9.926;2023-02-22T06:58:21;8.40;99.90
17954;DHT22;9102;53.548;9.926;2023-02-22T07:00:48;8.30;99.90
17954;DHT22;9102;53.548;9.926;2023-02-22T07:03:15;8.30;99.90
17954;DHT22;9102;53.548;9.926;2023-02-22T07:05:42;8.40;99.90
17954;DHT22;9102;53.548;9.926;2023-02-22T07:08:09;8.40;99.90
17954;DHT22;9102;53.548;9.926;2023-02-22T07:10:37;8.50;99.90
17954;DHT22;9102;53.548;9.926;2023-02-22T07:13:05;8.50;99.90
17954;DHT22;9102;53.548;9.926;2023-02-22T07:15:34;8.50;99.90
17954;DHT22;9102;53.548;9.926;2023-02-22T07:18:01;8.40;99.90
17954;DHT22;9102;53.548;9.926;2023-02-22T07:20:30;8.50;99.90
17954;DHT22;9102;53.548;9.926;2023-02-22T07:22:56;8.40;99.90
17954;DHT22;9102;53.548;9.926;2023-02-22T07:25:24;8.40;99.90
17954;DHT22;9102;53.548;9.926;2023-02-22T07:27:51;8.40;99.90
17954;DHT22;9102;53.548;9.926;2023-02-22T07:30:20;8.40;99.90
17954;DHT22;9102;53.548;9.926;2023-02-22T07:32:51;8.40;99.90
17954;DHT22;9102;53.548;9.926;2023-02-22T07:35:21;8.40;99.90
17954;DHT22;9102;53.548;9.926;2023-02-22T07:37:48;8.40;99.90
17954;DHT22;9102;53.548;9.926;2023-02-22T07:40:16;8.30;99.90
17954;DHT22;9102;53.548;9.926;2023-02-22T07:42:51;8.30;99.90
17954;DHT22;9102;53.548;9.926;2023-02-22T07:45:18;8.40;99.90
17954;DHT22;9102;53.548;9.926;2023-02-22T07:47:45;8.30;99.90
17954;DHT22;9102;53.548;9.926;2023-02-22T07:50:14;8.40;99.90
17954;DHT22;9102;53.548;9.926;2023-02-22T07:52:44;8.40;99.90
17954;DHT22;9102;53.548;9.926;2023-02-22T07:55:13;8.40;99.90
17954;DHT22;9102;53.548;9.926;2023-02-22T07:57:41;8.40;99.90
17954;DHT22;9102;53.548;9.926;2023-02-22T08:00:09;8.50;99.90
17954;DHT22;9102;53.548;9.926;2023-02-22T08:02:36;8.40;99.90
17954;DHT22;9102;53.548;9.926;2023-02-22T08:05:05;8.40;99.90
17954;DHT22;9102;53.548;9.926;2023-02-22T08:07:33;8.40;99.90
17954;DHT22;9102;53.548;9.926;2023-02-22T08:10:00;8.40;99.90
17954;DHT22;9102;53.548;9.926;2023-02-22T08:12:31;8.30;99.90
17954;DHT22;9102;53.548;9.926;2023-02-22T08:14:57;8.40;99.90
17954;DHT22;9102;53.548;9.926;2023-02-22T08:17:24;8.40;99.90
17954;DHT22;9102;53.548;9.926;2023-02-22T08:19:51;8.30;99.90
17954;DHT22;9102;53.548;9.926;2023-02-22T08:22:18;8.40;99.90
17954;DHT22;9102;53.548;9.926;2023-02-22T08:24:46;8.40;99.90
17954;DHT22;9102;53.548;9.926;2023-02-22T08:27:13;8.50;99.90
17954;DHT22;9102;53.548;9.926;2023-02-22T08:29:40;8.50;99.90
17954;DHT22;9102;53.548;9.926;2023-02-22T08:32:07;8.60;99.90
17954;DHT22;9102;53.548;9.926;2023-02-22T08:34:34;8.70;99.90
17954;DHT22;9102;53.548;9.926;2023-02-22T08:37:00;8.70;99.90
17954;DHT22;9102;53.548;9.926;2023-02-22T08:39:27;8.80;99.90
17954;DHT22;9102;53.548;9.926;2023-02-22T08:41:55;8.80;99.90
17954;DHT22;9102;53.548;9.926;2023-02-22T08:44:22;8.80;99.90
17954;DHT22;9102;53.548;9.926;2023-02-22T08:46:49;8.70;99.90
17954;DHT22;9102;53.548;9.926;2023-02-22T08:49:19;8.70;99.90
17954;DHT22;9102;53.548;9.926;2023-02-22T08:51:46;8.80;99.90
17954;DHT22;9102;53.548;9.926;2023-02-22T08:54:13;8.70;99.90
17954;DHT22;9102;53.548;9.926;2023-02-22T08:56:40;8.70;99.90
17954;DHT22;9102;53.548;9.926;2023-02-22T08:59:09;8.60;99.90
17954;DHT22;9102;53.548;9.926;2023-02-22T09:01:36;8.60;99.90
17954;DHT22;9102;53.548;9.926;2023-02-22T09:04:03;8.70;99.90
17954;DHT22;9102;53.548;9.926;2023-02-22T09:06:30;8.60;99.90
17954;DHT22;9102;53.548;9.926;2023-02-22T09:08:57;8.70;99.90
17954;DHT22;9102;53.548;9.926;2023-02-22T09:11:24;8.90;99.90
17954;DHT22;9102;53.548;9.926;2023-02-22T09:13:51;8.90;99.90
17954;DHT22;9102;53.548;9.926;2023-02-22T09:16:19;8.90;99.90
17954;DHT22;9102;53.548;9.926;2023-02-22T09:18:46;8.90;99.90
17954;DHT22;9102;53.548;9.926;2023-02-22T09:21:12;8.90;99.90
17954;DHT22;9102;53.548;9.926;2023-02-22T09:23:39;8.80;99.90
17954;DHT22;9102;53.548;9.926;2023-02-22T09:26:07;8.80;99.90
17954;DHT22;9102;53.548;9.926;2023-02-22T09:28:34;8.80;99.90
17954;DHT22;9102;53.548;9.926;2023-02-22T09:31:00;8.80;99.90
17954;DHT22;9102;53.548;9.926;2023-02-22T09:33:29;8.80;99.90
17954;DHT22;9102;53.548;9.926;2023-02-22T09:35:57;8.80;99.90
17954;DHT22;9102;53.548;9.926;2023-02-22T09:38:25;8.80;99.90
17954;DHT22;9102;53.548;9.926;2023-02-22T09:40:59;8.90;99.90
17954;DHT22;9102;53.548;9.926;2023-02-22T09:43:36;9.00;99.90
17954;DHT22;9102;53.548;9.926;2023-02-22T09:46:28;9.00;99.90
17954;DHT22;9102;53.548;9.926;2023-02-22T09:49:04;9.00;99.90
17954;DHT22;9102;53.548;9.926;2023-02-22T09:51:38;9.10;99.90
17954;DHT22;9102;53.548;9.926;2023-02-22T09:54:13;9.10;99.90
17954;DHT22;9102;53.548;9.926;2023-02-22T09:56:45;9.10;99.90
17954;DHT22;9102;53.548;9.926;2023-02-22T09:59:16;9.10;99.90
17954;DHT22;9102;53.548;9.926;2023-02-22T10:01:47;9.10;99.90
17954;DHT22;9102;53.548;9.926;2023-02-22T10:04:21;9.10;99.90
17954;DHT22;9102;53.548;9.926;2023-02-22T10:07:02;9.20;99.90
17954;DHT22;9102;53.548;9.926;2023-02-22T10:09:33;9.20;99.90
17954;DHT22;9102;53.548;9.926;2023-02-22T10:12:05;9.20;99.90
17954;DHT22;9102;53.548;9.926;2023-02-22T10:14:56;9.30;99.90
17954;DHT22;9102;53.548;9.926;2023-02-22T10:17:32;9.40;99.90
17954;DHT22;9102;53.548;9.926;2023-02-22T10:20:20;9.50;99.90
17954;DHT22;9102;53.548;9.926;2023-02-22T10:22:55;9.50;99.90
17954;DHT22;9102;53.548;9.926;2023-02-22T10:25:30;9.50;99.90
17954;DHT22;9102;53.548;9.926;2023-02-22T10:28:02;9.60;99.90
17954;DHT22;9102;53.548;9.926;2023-02-22T10:30:32;9.80;99.90
17954;DHT22;9102;53.548;9.926;2023-02-22T10:33:07;9.90;99.90
17954;DHT22;9102;53.548;9.926;2023-02-22T10:35:37;9.90;99.90
17954;DHT22;9102;53.548;9.926;2023-02-22T10:38:13;10.00;99.90
17954;DHT22;9102;53.548;9.926;2023-02-22T10:40:43;10.20;99.90
17954;DHT22;9102;53.548;9.926;2023-02-22T10:43:12;10.20;99.90
17954;DHT22;9102;53.548;9.926;2023-02-22T10:45:39;10.20;99.90
17954;DHT22;9102;53.548;9.926;2023-02-22T10:48:09;10.40;99.90
17954;DHT22;9102;53.548;9.926;2023-02-22T10:50:40;10.40;99.90
17954;DHT22;9102;53.548;9.926;2023-02-22T10:53:08;10.70;99.90
17954;DHT22;9102;53.548;9.926;2023-02-22T10:55:35;10.90;99.90
17954;DHT22;9102;53.548;9.926;2023-02-22T10:58:22;11.00;99.90
17954;DHT22;9102;53.548;9.926;2023-02-22T11:00:48;11.00;99.90
17954;DHT22;9102;53.548;9.926;2023-02-22T11:03:17;11.20;99.90
17954;DHT22;9102;53.548;9.926;2023-02-22T11:05:47;11.30;99.90
17954;DHT22;9102;53.548;9.926;2023-02-22T11:08:23;11.60;99.90
17954;DHT22;9102;53.548;9.926;2023-02-22T11:10:53;11.50;99.90
17954;DHT22;9102;53.548;9.926;2023-02-22T11:13:26;11.50;99.90
17954;DHT22;9102;53.548;9.926;2023-02-22T11:15:53;11.40;99.90
17954;DHT22;9102;53.548;9.926;2023-02-22T11:18:24;11.60;99.90
17954;DHT22;9102;53.548;9.926;2023-02-22T11:21:04;11.70;99.90
17954;DHT22;9102;53.548;9.926;2023-02-22T11:23:32;11.70;99.90
17954;DHT22;9102;53.548;9.926;2023-02-22T11:26:06;12.00;99.90
17954;DHT22;9102;53.548;9.926;2023-02-22T11:28:35;12.00;99.90
17954;DHT22;9102;53.548;9.926;2023-02-22T11:31:12;12.30;99.90
17954;DHT22;9102;53.548;9.926;2023-02-22T11:33:47;12.30;99.90
17954;DHT22;9102;53.548;9.926;2023-02-22T11:36:30;12.20;99.90
17954;DHT22;9102;53.548;9.926;2023-02-22T11:38:57;12.20;99.90
17954;DHT22;9102;53.548;9.926;2023-02-22T11:41:26;11.90;99.90
17954;DHT22;9102;53.548;9.926;2023-02-22T11:44:12;11.90;99.90
17954;DHT22;9102;53.548;9.926;2023-02-22T11:46:40;11.70;99.90
17954;DHT22;9102;53.548;9.926;2023-02-22T11:49:09;11.60;99.90
17954;DHT22;9102;53.548;9.926;2023-02-22T11:51:50;11.60;99.90
17954;DHT22;9102;53.548;9.926;2023-02-22T11:54:30;11.60;99.90
17954;DHT22;9102;53.548;9.926;2023-02-22T11:57:07;11.60;99.90
17954;DHT22;9102;53.548;9.926;2023-02-22T11:59:39;11.50;99.90
17954;DHT22;9102;53.548;9.926;2023-02-22T12:02:28;11.50;99.90
17954;DHT22;9102;53.548;9.926;2023-02-22T12:05:11;11.50;99.90
17954;DHT22;9102;53.548;9.926;2023-02-22T12:07:53;11.50;99.90
17954;DHT22;9102;53.548;9.926;2023-02-22T12:10:28;11.60;99.90
17954;DHT22;9102;53.548;9.926;2023-02-22T12:13:08;11.60;99.90
17954;DHT22;9102;53.548;9.926;2023-02-22T12:15:45;11.60;99.90
17954;DHT22;9102;53.548;9.926;2023-02-22T12:18:22;11.70;99.90
17954;DHT22;9102;53.548;9.926;2023-02-22T12:20:53;11.80;99.90
17954;DHT22;9102;53.548;9.926;2023-02-22T12:23:25;11.80;99.90
17954;DHT22;9102;53.548;9.926;2023-02-22T12:25:59;11.90;99.90
17954;DHT22;9102;53.548;9.926;2023-02-22T12:28:32;11.80;99.90
17954;DHT22;9102;53.548;9.926;2023-02-22T12:31:10;11.80;99.90
17954;DHT22;9102;53.548;9.926;2023-02-22T12:33:48;11.80;99.90
17954;DHT22;9102;53.548;9.926;2023-02-22T12:36:19;11.90;99.90
17954;DHT22;9102;53.548;9.926;2023-02-22T12:38:53;11.90;99.90
17954;DHT22;9102;53.548;9.926;2023-02-22T12:41:26;12.10;99.90
17954;DHT22;9102;53.548;9.926;2023-02-22T12:44:01;12.00;99.90
17954;DHT22;9102;53.548;9.926;2023-02-22T12:46:32;11.90;99.90
17954;DHT22;9102;53.548;9.926;2023-02-22T12:49:06;11.90;99.90
17954;DHT22;9102;53.548;9.926;2023-02-22T12:51:41;11.80;99.90
17954;DHT22;9102;53.548;9.926;2023-02-22T12:54:15;11.90;99.90
17954;DHT22;9102;53.548;9.926;2023-02-22T12:56:49;12.00;99.90
17954;DHT22;9102;53.548;9.926;2023-02-22T12:59:21;12.10;99.90
17954;DHT22;9102;53.548;9.926;2023-02-22T13:01:56;12.00;99.90
17954;DHT22;9102;53.548;9.926;2023-02-22T13:04:24;11.90;99.90
17954;DHT22;9102;53.548;9.926;2023-02-22T13:06:59;11.80;99.90
17954;DHT22;9102;53.548;9.926;2023-02-22T13:09:50;11.80;99.90
17954;DHT22;9102;53.548;9.926;2023-02-22T13:12:22;11.80;99.90
17954;DHT22;9102;53.548;9.926;2023-02-22T13:15:00;11.80;99.90
17954;DHT22;9102;53.548;9.926;2023-02-22T13:17:35;11.90;99.90
17954;DHT22;9102;53.548;9.926;2023-02-22T13:20:12;11.80;99.90
17954;DHT22;9102;53.548;9.926;2023-02-22T13:22:44;11.70;99.90
17954;DHT22;9102;53.548;9.926;2023-02-22T13:25:18;11.70;99.90
17954;DHT22;9102;53.548;9.926;2023-02-22T13:27:50;11.80;99.90
17954;DHT22;9102;53.548;9.926;2023-02-22T13:42:47;11.80;99.90
17954;DHT22;9102;53.548;9.926;2023-02-22T13:45:45;11.80;99.90
17954;DHT22;9102;53.548;9.926;2023-02-22T13:48:26;11.70;99.90
17954;DHT22;9102;53.548;9.926;2023-02-22T13:51:09;11.70;99.90
17954;DHT22;9102;53.548;9.926;2023-02-22T13:53:46;11.70;99.90
17954;DHT22;9102;53.548;9.926;2023-02-22T13:56:14;11.80;99.90
17954;DHT22;9102;53.548;9.926;2023-02-22T13:58:53;11.80;99.90
17954;DHT22;9102;53.548;9.926;2023-02-22T14:01:42;11.80;99.90
17954;DHT22;9102;53.548;9.926;2023-02-22T14:04:23;11.70;99.90
17954;DHT22;9102;53.548;9.926;2023-02-22T14:06:59;11.70;99.90
17954;DHT22;9102;53.548;9.926;2023-02-22T14:09:42;11.70;99.90
17954;DHT22;9102;53.548;9.926;2023-02-22T14:12:47;11.70;99.90
17954;DHT22;9102;53.548;9.926;2023-02-22T14:15:17;11.70;99.90
17954;DHT22;9102;53.548;9.926;2023-02-22T14:17:47;11.80;99.90
17954;DHT22;9102;53.548;9.926;2023-02-22T14:20:24;11.80;99.90
17954;DHT22;9102;53.548;9.926;2023-02-22T14:23:27;11.70;99.90
17954;DHT22;9102;53.548;9.926;2023-02-22T14:25:56;11.60;99.90
17954;DHT22;9102;53.548;9.926;2023-02-22T14:28:36;11.70;99.90
17954;DHT22;9102;53.548;9.926;2023-02-22T14:31:07;11.60;99.90
17954;DHT22;9102;53.548;9.926;2023-02-22T14:34:00;11.70;99.90
17954;DHT22;9102;53.548;9.926;2023-02-22T14:36:32;11.70;99.90
17954;DHT22;9102;53.548;9.926;2023-02-22T14:39:15;11.70;99.90
17954;DHT22;9102;53.548;9.926;2023-02-22T14:41:49;11.60;99.90
17954;DHT22;9102;53.548;9.926;2023-02-22T14:44:22;11.60;99.90
17954;DHT22;9102;53.548;9.926;2023-02-22T14:46:54;11.60;99.90
17954;DHT22;9102;53.548;9.926;2023-02-22T14:49:27;11.70;99.90
17954;DHT22;9102;53.548;9.926;2023-02-22T14:51:58;11.70;99.90
17954;DHT22;9102;53.548;9.926;2023-02-22T14:54:31;11.60;99.90
17954;DHT22;9102;53.548;9.926;2023-02-22T14:57:07;11.70;99.90
17954;DHT22;9102;53.548;9.926;2023-02-22T14:59:49;11.60;99.90
17954;DHT22;9102;53.548;9.926;2023-02-22T15:02:19;11.60;99.90
17954;DHT22;9102;53.548;9.926;2023-02-22T15:04:51;11.60;99.90
17954;DHT22;9102;53.548;9.926;2023-02-22T15:07:24;11.50;99.90
17954;DHT22;9102;53.548;9.926;2023-02-22T15:10:04;11.60;99.90
17954;DHT22;9102;53.548;9.926;2023-02-22T15:12:32;11.60;99.90
17954;DHT22;9102;53.548;9.926;2023-02-22T15:15:15;11.60;99.90
17954;DHT22;9102;53.548;9.926;2023-02-22T15:17:52;11.60;99.90
17954;DHT22;9102;53.548;9.926;2023-02-22T15:20:21;11.60;99.90
17954;DHT22;9102;53.548;9.926;2023-02-22T15:22:49;11.70;99.90
17954;DHT22;9102;53.548;9.926;2023-02-22T15:28:40;11.60;99.90
17954;DHT22;9102;53.548;9.926;2023-02-22T15:31:22;11.50;99.90
17954;DHT22;9102;53.548;9.926;2023-02-22T15:33:51;11.50;99.90
17954;DHT22;9102;53.548;9.926;2023-02-22T15:36:21;11.40;99.90
17954;DHT22;9102;53.548;9.926;2023-02-22T15:38:52;11.30;99.90
17954;DHT22;9102;53.548;9.926;2023-02-22T15:41:23;11.30;99.90
17954;DHT22;9102;53.548;9.926;2023-02-22T15:44:00;11.30;99.90
17954;DHT22;9102;53.548;9.926;2023-02-22T15:46:29;11.30;99.90
17954;DHT22;9102;53.548;9.926;2023-02-22T15:49:21;11.20;99.90
17954;DHT22;9102;53.548;9.926;2023-02-22T15:52:05;11.20;99.90
17954;DHT22;9102;53.548;9.926;2023-02-22T15:54:39;11.20;99.90
17954;DHT22;9102;53.548;9.926;2023-02-22T15:57:07;11.20;99.90
17954;DHT22;9102;53.548;9.926;2023-02-22T15:59:42;11.20;99.90
17954;DHT22;9102;53.548;9.926;2023-02-22T16:02:27;11.20;99.90
17954;DHT22;9102;53.548;9.926;2023-02-22T16:04:59;11.10;99.90
17954;DHT22;9102;53.548;9.926;2023-02-22T16:07:27;11.00;99.90
17954;DHT22;9102;53.548;9.926;2023-02-22T16:09:55;11.00;99.90
17954;DHT22;9102;53.548;9.926;2023-02-22T16:12:25;11.10;99.90
17954;DHT22;9102;53.548;9.926;2023-02-22T16:14:53;11.00;99.90
17954;DHT22;9102;53.548;9.926;2023-02-22T16:17:26;11.00;99.90
17954;DHT22;9102;53.548;9.926;2023-02-22T16:19:57;11.00;99.90
17954;DHT22;9102;53.548;9.926;2023-02-22T16:22:27;10.90;99.90
17954;DHT22;9102;53.548;9.926;2023-02-22T16:25:14;10.90;99.90
17954;DHT22;9102;53.548;9.926;2023-02-22T16:27:42;10.90;99.90
17954;DHT22;9102;53.548;9.926;2023-02-22T16:30:24;10.90;99.90
17954;DHT22;9102;53.548;9.926;2023-02-22T16:32:53;10.90;99.90
17954;DHT22;9102;53.548;9.926;2023-02-22T16:38:44;10.80;99.90
17954;DHT22;9102;53.548;9.926;2023-02-22T16:41:13;10.80;99.90
17954;DHT22;9102;53.548;9.926;2023-02-22T16:43:44;10.80;99.90
17954;DHT22;9102;53.548;9.926;2023-02-22T16:46:12;10.70;99.90
17954;DHT22;9102;53.548;9.926;2023-02-22T16:48:41;10.70;99.90
17954;DHT22;9102;53.548;9.926;2023-02-22T16:51:17;10.70;99.90
17954;DHT22;9102;53.548;9.926;2023-02-22T16:53:46;10.70;99.90
17954;DHT22;9102;53.548;9.926;2023-02-22T16:56:16;10.70;99.90